Time;durP1;ratioP1;P1;durP2;ratioP2;P2;SDS_P1;SDS_P2;PMS_P1;PMS_P2;Temp;Humidity;BMP_temperature;BMP_pressure;BME280_temperature;BME280_humidity;BME280_pressure;Samples;Min_cycle;Max_cycle;Signal;HPM_P1;HPM_P2
2021/04/09 00:00:20;;;;;;;18.67;16.97;;;5.20;94.00;;;;;;5072197;28;20890;-75
2021/04/09 00:02:48;;;;;;;19.20;17.40;;;5.20;94.00;;;;;;5071870;28;20976;-75
2021/04/09 00:05:18;;;;;;;20.37;18.40;;;5.20;94.10;;;;;;5073096;28;20571;-75
2021/04/09 00:07:47;;;;;;;19.23;17.33;;;5.20;94.10;;;;;;5073047;28;20475;-75
2021/04/09 00:10:14;;;;;;;19.40;17.60;;;5.20;94.10;;;;;;5072170;28;20480;-75
2021/04/09 00:12:42;;;;;;;19.93;18.20;;;5.20;94.10;;;;;;5072895;28;20534;-75
2021/04/09 00:15:11;;;;;;;18.00;16.37;;;5.20;94.10;;;;;;5076632;28;20437;-75
2021/04/09 00:17:39;;;;;;;18.60;17.00;;;5.20;94.10;;;;;;5076247;28;20433;-75
2021/04/09 00:20:08;;;;;;;18.67;17.07;;;5.20;94.20;;;;;;5077318;28;20962;-75
2021/04/09 00:22:35;;;;;;;18.20;16.50;;;5.20;94.20;;;;;;5076124;28;20441;-75
2021/04/09 00:25:05;;;;;;;19.73;18.03;;;5.20;94.20;;;;;;5076357;28;20445;-75
2021/04/09 00:27:33;;;;;;;18.17;16.57;;;5.20;94.20;;;;;;5076667;28;20448;-75
2021/04/09 00:30:00;;;;;;;18.10;16.47;;;5.20;94.30;;;;;;5074862;28;21001;-75
2021/04/09 00:32:27;;;;;;;20.10;18.27;;;5.20;94.30;;;;;;5075112;28;20441;-76
2021/04/09 00:34:59;;;;;;;19.40;17.50;;;5.20;94.30;;;;;;5075186;28;20449;-76
2021/04/09 00:37:27;;;;;;;18.77;16.77;;;5.20;94.30;;;;;;5076995;28;20468;-75
2021/04/09 00:39:54;;;;;;;18.43;16.67;;;5.20;94.30;;;;;;5076184;28;20484;-75
2021/04/09 00:42:22;;;;;;;18.60;16.93;;;5.10;94.30;;;;;;5075070;28;20529;-76
2021/04/09 00:44:49;;;;;;;18.53;16.63;;;5.20;94.30;;;;;;5075038;28;20472;-76
2021/04/09 00:47:16;;;;;;;19.70;17.90;;;5.20;94.40;;;;;;5074661;28;20437;-75
2021/04/09 00:49:44;;;;;;;19.53;17.70;;;5.20;94.40;;;;;;5075975;28;20485;-75
2021/04/09 00:52:11;;;;;;;20.70;18.83;;;5.20;94.40;;;;;;5075748;28;20846;-75
2021/04/09 00:54:40;;;;;;;18.67;16.97;;;5.20;94.40;;;;;;5074691;28;20494;-75
2021/04/09 00:57:07;;;;;;;19.40;17.20;;;5.20;94.40;;;;;;5075888;28;20513;-75
2021/04/09 00:59:35;;;;;;;18.63;16.87;;;5.20;94.40;;;;;;5075663;28;20465;-75
2021/04/09 01:02:03;;;;;;;18.43;16.50;;;5.20;94.40;;;;;;5075625;28;20444;-75
2021/04/09 01:04:31;;;;;;;18.63;16.77;;;5.20;94.40;;;;;;5076226;28;20416;-76
2021/04/09 01:06:59;;;;;;;16.57;15.07;;;5.20;94.50;;;;;;5075506;28;20465;-75
2021/04/09 01:09:26;;;;;;;18.35;16.55;;;5.20;94.50;;;;;;5073245;28;20438;-75
2021/04/09 01:11:54;;;;;;;17.80;16.10;;;5.30;94.50;;;;;;5074550;28;20586;-75
2021/04/09 01:14:21;;;;;;;16.90;15.40;;;5.30;94.50;;;;;;5075661;28;20450;-76
2021/04/09 01:16:55;;;;;;;18.40;16.70;;;5.30;94.50;;;;;;5075769;28;20329;-76
2021/04/09 01:19:42;;;;;;;19.20;17.20;;;5.20;94.50;;;;;;5075596;28;20503;-76
2021/04/09 01:22:12;;;;;;;18.50;16.73;;;5.20;94.50;;;;;;5075481;28;20467;-76
2021/04/09 01:25:03;;;;;;;18.20;16.23;;;5.20;94.50;;;;;;5073175;28;20449;-76
2021/04/09 01:27:56;;;;;;;17.87;16.17;;;5.20;94.80;;;;;;5073823;28;20467;-76
2021/04/09 01:30:52;;;;;;;17.20;15.50;;;5.20;94.50;;;;;;5075219;28;20639;-76
2021/04/09 01:33:25;;;;;;;19.77;17.40;;;5.20;94.60;;;;;;5074087;28;20441;-76
2021/04/09 01:35:57;;;;;;;18.07;16.40;;;5.10;94.60;;;;;;5075529;28;20464;-76
2021/04/09 01:38:28;;;;;;;18.13;16.33;;;5.20;94.60;;;;;;5075126;28;20429;-76
2021/04/09 01:40:57;;;;;;;19.30;17.57;;;5.10;94.60;;;;;;5073765;28;20479;-76
2021/04/09 01:43:25;;;;;;;17.90;16.27;;;5.10;94.60;;;;;;5075498;28;20500;-76
2021/04/09 01:45:53;;;;;;;17.73;16.03;;;5.10;94.60;;;;;;5073578;28;20457;-76
2021/04/09 01:48:21;;;;;;;19.00;17.00;;;5.10;94.60;;;;;;5073561;28;20449;-76
2021/04/09 01:50:51;;;;;;;18.03;16.20;;;5.10;94.60;;;;;;5075432;28;20469;-76
2021/04/09 01:53:22;;;;;;;16.57;15.00;;;5.10;94.70;;;;;;5073458;28;20479;-75
2021/04/09 01:55:51;;;;;;;18.60;16.80;;;5.10;94.70;;;;;;5075299;28;20424;-75
2021/04/09 01:58:20;;;;;;;16.87;15.27;;;5.00;94.70;;;;;;5073397;28;20441;-75
2021/04/09 02:00:47;;;;;;;18.00;16.30;;;5.00;94.70;;;;;;5073909;28;20449;-75
2021/04/09 02:03:19;;;;;;;17.63;15.97;;;5.00;94.70;;;;;;5074629;28;20409;-76
2021/04/09 02:05:51;;;;;;;17.20;15.50;;;5.00;94.70;;;;;;5073462;28;20459;-76
2021/04/09 02:08:20;;;;;;;17.90;16.00;;;5.00;94.70;;;;;;5075553;28;20425;-76
2021/04/09 02:10:55;;;;;;;18.07;16.30;;;5.00;94.70;;;;;;5074618;28;20449;-75
2021/04/09 02:13:24;;;;;;;18.60;16.47;;;5.00;94.70;;;;;;5073163;28;20491;-75
2021/04/09 02:15:54;;;;;;;17.10;15.30;;;5.00;94.70;;;;;;5074854;28;20505;-75
2021/04/09 02:18:22;;;;;;;17.87;16.23;;;5.00;94.80;;;;;;5074560;28;20491;-75
2021/04/09 02:20:51;;;;;;;17.67;15.87;;;5.00;94.70;;;;;;5073091;28;20532;-76
2021/04/09 02:23:18;;;;;;;17.37;15.57;;;5.00;94.70;;;;;;5072901;28;20440;-76
2021/04/09 02:25:46;;;;;;;18.33;15.53;;;5.00;94.80;;;;;;5073105;28;20556;-76
2021/04/09 02:28:14;;;;;;;16.30;14.63;;;5.00;94.80;;;;;;5072642;28;20468;-76
2021/04/09 02:30:41;;;;;;;16.50;15.00;;;5.00;94.80;;;;;;5074028;28;20480;-75
2021/04/09 02:33:09;;;;;;;17.00;15.23;;;5.00;94.80;;;;;;5073095;28;20514;-75
2021/04/09 02:35:36;;;;;;;18.23;16.63;;;4.90;94.80;;;;;;5073969;28;20455;-76
2021/04/09 02:38:04;;;;;;;16.87;15.30;;;4.90;94.80;;;;;;5074507;28;20441;-76
2021/04/09 02:40:35;;;;;;;18.17;15.67;;;4.90;94.80;;;;;;5073794;28;20481;-76
2021/04/09 02:43:02;;;;;;;18.10;16.43;;;4.90;94.80;;;;;;5074017;28;20417;-76
2021/04/09 02:45:29;;;;;;;17.63;15.93;;;4.90;94.90;;;;;;5073539;28;20496;-76
2021/04/09 02:48:00;;;;;;;18.27;16.47;;;4.80;94.90;;;;;;5074029;28;20230;-76
2021/04/09 02:50:31;;;;;;;16.63;15.10;;;4.80;94.90;;;;;;5074063;28;20517;-76
2021/04/09 02:53:03;;;;;;;17.90;16.20;;;4.80;94.90;;;;;;5073943;28;20428;-76
2021/04/09 02:55:34;;;;;;;19.13;17.13;;;4.80;94.90;;;;;;5072697;28;20789;-76
2021/04/09 02:58:05;;;;;;;16.40;14.80;;;4.80;95.00;;;;;;5073976;28;20466;-76
2021/04/09 03:00:33;;;;;;;17.00;15.33;;;4.80;95.00;;;;;;5073549;28;20457;-76
2021/04/09 03:03:01;;;;;;;15.43;14.00;;;4.80;95.00;;;;;;5073680;28;20952;-76
2021/04/09 03:05:31;;;;;;;18.50;15.27;;;4.80;95.00;;;;;;5072344;28;20826;-76
2021/04/09 03:07:59;;;;;;;18.47;15.50;;;4.70;95.00;;;;;;5074244;28;20482;-76
2021/04/09 03:10:26;;;;;;;16.63;15.00;;;4.70;95.00;;;;;;5073733;28;20460;-76
2021/04/09 03:12:55;;;;;;;16.67;15.07;;;4.70;95.00;;;;;;5073574;28;20516;-76
2021/04/09 03:15:27;;;;;;;17.27;15.53;;;4.70;95.10;;;;;;5072384;28;20456;-76
2021/04/09 03:17:57;;;;;;;15.83;14.30;;;4.70;95.10;;;;;;5072391;28;20937;-76
2021/04/09 03:20:25;;;;;;;17.40;15.70;;;4.70;95.10;;;;;;5072632;28;20473;-76
2021/04/09 03:22:52;;;;;;;17.10;15.40;;;4.70;95.10;;;;;;5073515;28;20467;-76
2021/04/09 03:25:19;;;;;;;17.50;15.73;;;4.70;95.10;;;;;;5073613;28;20471;-75
2021/04/09 03:27:47;;;;;;;17.52;15.60;;;4.70;95.10;;;;;;5071795;28;20822;-75
2021/04/09 03:30:17;;;;;;;16.90;15.20;;;4.80;95.20;;;;;;5074700;28;20211;-76
2021/04/09 03:32:45;;;;;;;17.60;15.70;;;4.80;95.20;;;;;;5073345;28;20794;-76
2021/04/09 03:35:12;;;;;;;16.63;14.83;;;4.80;95.20;;;;;;5074761;28;20966;-76
2021/04/09 03:37:42;;;;;;;16.73;15.13;;;4.80;95.20;;;;;;5074008;28;20558;-75
2021/04/09 03:40:10;;;;;;;16.10;14.50;;;4.80;95.20;;;;;;5072728;28;20490;-76
2021/04/09 03:42:38;;;;;;;16.53;14.90;;;4.90;95.30;;;;;;5073301;28;20887;-76
2021/04/09 03:45:07;;;;;;;16.43;14.70;;;4.90;95.30;;;;;;5071998;28;20498;-76
2021/04/09 03:47:35;;;;;;;16.03;14.50;;;4.90;95.30;;;;;;5072633;28;20564;-76
2021/04/09 03:50:04;;;;;;;16.60;14.97;;;4.90;95.30;;;;;;5077151;28;20476;-76
2021/04/09 03:52:31;;;;;;;17.30;14.57;;;4.90;95.30;;;;;;5077059;28;20433;-75
2021/04/09 03:54:58;;;;;;;15.30;13.77;;;4.80;95.20;;;;;;5077188;28;20418;-75
2021/04/09 03:57:26;;;;;;;17.30;14.87;;;4.80;95.30;;;;;;5077105;28;20512;-75
2021/04/09 03:59:53;;;;;;;18.70;15.40;;;4.90;95.30;;;;;;5075681;28;20469;-75
2021/04/09 04:02:20;;;;;;;17.20;15.10;;;4.80;95.30;;;;;;5078688;28;20421;-75
2021/04/09 04:04:48;;;;;;;16.70;15.03;;;4.90;95.40;;;;;;5077230;28;20778;-75
2021/04/09 04:07:16;;;;;;;16.03;14.33;;;4.90;95.40;;;;;;5075666;28;20477;-75
2021/04/09 04:09:44;;;;;;;15.03;13.63;;;4.90;95.40;;;;;;5075460;28;20475;-75
2021/04/09 04:12:11;;;;;;;17.83;16.03;;;4.90;95.40;;;;;;5075283;28;20821;-75
2021/04/09 04:14:38;;;;;;;16.27;14.63;;;4.90;95.40;;;;;;5077069;28;20433;-75
2021/04/09 04:17:07;;;;;;;16.63;14.93;;;4.90;95.40;;;;;;5076822;28;20429;-75
2021/04/09 04:19:34;;;;;;;16.00;14.40;;;5.00;95.50;;;;;;5075527;28;20469;-75
2021/04/09 04:22:02;;;;;;;17.13;14.70;;;5.00;95.80;;;;;;5076763;28;20469;-75
2021/04/09 04:24:29;;;;;;;15.70;14.20;;;5.00;95.50;;;;;;5074976;28;20901;-75
2021/04/09 04:26:57;;;;;;;15.63;14.13;;;5.00;95.50;;;;;;5074916;28;20476;-76
2021/04/09 04:29:24;;;;;;;19.47;14.53;;;5.00;95.50;;;;;;5076382;28;20461;-76
2021/04/09 04:31:51;;;;;;;17.00;15.30;;;5.10;95.60;;;;;;5074859;28;20444;-76
2021/04/09 04:34:19;;;;;;;15.87;14.33;;;5.10;95.60;;;;;;5074737;28;20465;-76
2021/04/09 04:36:46;;;;;;;16.40;14.80;;;5.10;95.60;;;;;;5076285;28;20887;-76
2021/04/09 04:39:15;;;;;;;16.87;14.70;;;5.10;95.60;;;;;;5074610;28;20519;-76
2021/04/09 04:41:43;;;;;;;17.33;15.23;;;5.10;95.60;;;;;;5074574;28;20499;-76
2021/04/09 04:44:11;;;;;;;18.50;14.93;;;5.20;95.70;;;;;;5075884;28;20429;-76
2021/04/09 04:46:37;;;;;;;16.23;14.73;;;5.20;95.70;;;;;;5075850;28;21001;-76
2021/04/09 04:49:05;;;;;;;15.70;14.07;;;5.20;95.70;;;;;;5074421;28;20655;-76
2021/04/09 04:51:33;;;;;;;17.27;15.50;;;5.20;95.70;;;;;;5076182;28;20830;-76
2021/04/09 04:54:00;;;;;;;16.90;14.43;;;5.30;95.80;;;;;;5076000;28;20413;-76
2021/04/09 04:56:28;;;;;;;16.70;15.00;;;5.30;95.80;;;;;;5075978;28;20475;-76
2021/04/09 04:58:55;;;;;;;15.27;13.43;;;5.30;95.80;;;;;;5074714;28;20461;-75
2021/04/09 05:01:23;;;;;;;16.90;14.87;;;5.30;95.80;;;;;;5076092;28;20422;-75
2021/04/09 05:03:53;;;;;;;15.87;14.37;;;5.30;95.80;;;;;;5076759;28;20491;-75
2021/04/09 05:06:20;;;;;;;18.03;16.33;;;5.40;95.80;;;;;;5075768;28;20496;-75
2021/04/09 05:08:48;;;;;;;17.33;14.37;;;5.40;95.80;;;;;;5075932;28;20457;-75
2021/04/09 05:11:22;;;;;;;16.00;14.37;;;5.40;96.10;;;;;;5074880;28;20417;-75
2021/04/09 05:13:50;;;;;;;15.13;13.63;;;5.40;95.80;;;;;;5074631;28;20449;-75
2021/04/09 05:16:22;;;;;;;16.50;14.80;;;5.50;95.90;;;;;;5075969;28;20483;-76
2021/04/09 05:18:49;;;;;;;15.87;14.27;;;5.50;96.10;;;;;;5074616;28;20461;-75
2021/04/09 05:21:17;;;;;;;17.23;15.53;;;5.50;95.90;;;;;;5075908;28;20820;-75
2021/04/09 05:23:47;;;;;;;16.23;14.60;;;5.50;95.90;;;;;;5075969;28;20536;-75
2021/04/09 05:26:15;;;;;;;15.97;14.27;;;5.50;95.90;;;;;;5075719;28;20461;-75
2021/04/09 05:28:42;;;;;;;16.97;15.00;;;5.60;95.90;;;;;;5074371;28;20497;-75
2021/04/09 05:31:10;;;;;;;15.17;13.70;;;5.60;95.90;;;;;;5074577;28;20445;-75
2021/04/09 05:33:38;;;;;;;14.53;13.00;;;5.60;95.90;;;;;;5075602;28;20486;-75
2021/04/09 05:36:06;;;;;;;16.73;15.13;;;5.60;96.00;;;;;;5075667;28;20438;-75
2021/04/09 05:38:34;;;;;;;16.27;14.60;;;5.60;95.90;;;;;;5075311;28;20453;-76
2021/04/09 05:41:01;;;;;;;18.87;16.87;;;5.60;96.00;;;;;;5075831;28;20417;-76
2021/04/09 05:43:29;;;;;;;18.20;15.40;;;5.60;96.00;;;;;;5073968;28;20446;-76
2021/04/09 05:45:57;;;;;;;16.20;14.60;;;5.70;96.00;;;;;;5077641;28;20433;-76
2021/04/09 05:48:28;;;;;;;16.80;15.07;;;5.70;96.00;;;;;;5075202;28;20413;-75
2021/04/09 05:50:59;;;;;;;16.03;14.50;;;5.70;96.10;;;;;;5075593;28;20883;-75
2021/04/09 05:53:34;;;;;;;14.90;13.33;;;5.70;96.00;;;;;;5073688;28;20901;-76
2021/04/09 05:56:03;;;;;;;15.57;14.07;;;5.70;96.10;;;;;;5074994;28;20475;-75
2021/04/09 05:58:31;;;;;;;17.43;14.63;;;5.70;96.10;;;;;;5073423;28;20457;-75
2021/04/09 06:00:59;;;;;;;14.80;13.37;;;5.70;96.10;;;;;;5074855;28;20418;-75
2021/04/09 06:03:27;;;;;;;17.20;15.20;;;5.80;96.10;;;;;;5075581;28;20802;-75
2021/04/09 06:05:54;;;;;;;16.87;15.30;;;5.80;96.10;;;;;;5073206;28;20795;-75
2021/04/09 06:08:22;;;;;;;14.90;13.40;;;5.80;96.10;;;;;;5072123;28;20533;-75
2021/04/09 06:10:50;;;;;;;19.43;13.40;;;6.00;96.20;;;;;;5072827;28;20202;-76
2021/04/09 06:13:20;;;;;;;16.20;14.43;;;6.00;96.10;;;;;;5074696;28;20422;-76
2021/04/09 06:15:48;;;;;;;15.53;14.03;;;6.00;96.20;;;;;;5074738;28;20421;-75
2021/04/09 06:18:15;;;;;;;15.87;14.20;;;6.00;96.20;;;;;;5074436;28;20437;-76
2021/04/09 06:20:47;;;;;;;17.50;14.27;;;6.10;96.30;;;;;;5073529;28;20444;-76
2021/04/09 06:23:16;;;;;;;14.83;13.30;;;6.10;96.30;;;;;;5075114;28;20455;-76
2021/04/09 06:25:45;;;;;;;18.43;15.27;;;6.10;96.30;;;;;;5074991;28;20437;-76
2021/04/09 06:28:14;;;;;;;15.97;14.47;;;6.10;96.30;;;;;;5074584;28;20469;-76
2021/04/09 06:30:42;;;;;;;14.33;12.90;;;6.20;96.30;;;;;;5075258;28;20414;-75
2021/04/09 06:33:11;;;;;;;16.73;14.10;;;6.20;96.30;;;;;;5075898;28;20779;-75
2021/04/09 06:35:39;;;;;;;15.83;14.20;;;6.20;96.30;;;;;;5075433;28;20417;-76
2021/04/09 06:38:08;;;;;;;15.90;13.70;;;6.30;96.40;;;;;;5075134;28;20918;-76
2021/04/09 06:40:37;;;;;;;14.90;13.20;;;6.30;96.40;;;;;;5074208;28;20511;-75
2021/04/09 06:43:06;;;;;;;15.33;13.83;;;6.40;96.40;;;;;;5074012;28;20413;-76
2021/04/09 06:45:35;;;;;;;15.60;13.90;;;6.50;96.40;;;;;;5074100;28;20418;-76
2021/04/09 06:48:04;;;;;;;15.93;14.43;;;6.60;96.50;;;;;;5073926;28;20461;-76
2021/04/09 06:50:34;;;;;;;14.70;13.20;;;6.60;96.50;;;;;;5073968;28;20448;-76
2021/04/09 06:53:04;;;;;;;16.17;13.97;;;6.70;96.50;;;;;;5074267;28;20519;-77
2021/04/09 06:55:38;;;;;;;14.37;12.90;;;6.80;96.50;;;;;;5073941;28;20456;-76
2021/04/09 06:58:10;;;;;;;18.17;14.23;;;7.00;96.50;;;;;;5072661;28;20442;-76
2021/04/09 07:00:39;;;;;;;16.10;14.33;;;7.00;96.50;;;;;;5072609;28;20864;-76
2021/04/09 07:03:09;;;;;;;14.60;12.40;;;7.10;96.50;;;;;;5072522;28;20817;-76
2021/04/09 07:05:38;;;;;;;15.60;14.03;;;7.20;96.50;;;;;;5072546;28;20426;-76
2021/04/09 07:08:07;;;;;;;12.93;11.63;;;7.30;96.50;;;;;;5073851;28;20983;-76
2021/04/09 07:10:36;;;;;;;18.10;12.67;;;7.40;96.50;;;;;;5072445;28;20464;-76
2021/04/09 07:13:05;;;;;;;13.83;12.50;;;7.60;96.60;;;;;;5073938;28;20445;-76
2021/04/09 07:15:38;;;;;;;16.73;13.23;;;7.80;96.70;;;;;;5072464;28;20460;-76
2021/04/09 07:18:09;;;;;;;18.40;12.93;;;8.00;96.70;;;;;;5072622;28;20453;-76
2021/04/09 07:20:44;;;;;;;15.47;12.70;;;8.30;96.60;;;;;;5073693;28;20518;-76
2021/04/09 07:23:13;;;;;;;13.70;12.07;;;8.40;96.50;;;;;;5074397;28;20444;-76
2021/04/09 07:25:45;;;;;;;12.97;11.67;;;8.50;96.50;;;;;;5076543;28;20514;-76
2021/04/09 07:28:18;;;;;;;13.57;11.53;;;8.70;96.50;;;;;;5076448;28;20477;-76
2021/04/09 07:30:50;;;;;;;15.00;13.47;;;8.80;96.50;;;;;;5078473;28;20425;-76
2021/04/09 07:33:19;;;;;;;14.73;12.53;;;9.00;96.50;;;;;;5078525;28;20878;-76
2021/04/09 07:35:48;;;;;;;13.07;11.77;;;9.10;96.50;;;;;;5077913;28;20461;-76
2021/04/09 07:38:22;;;;;;;13.30;11.90;;;9.30;96.50;;;;;;5077835;28;20483;-76
2021/04/09 07:40:59;;;;;;;13.33;11.77;;;9.30;96.30;;;;;;5076406;28;20445;-76
2021/04/09 07:43:29;;;;;;;13.00;11.70;;;9.40;96.30;;;;;;5078071;28;20606;-76
2021/04/09 07:45:58;;;;;;;13.33;11.93;;;9.50;96.30;;;;;;5076472;28;20449;-76
2021/04/09 07:48:32;;;;;;;15.10;12.20;;;9.60;96.30;;;;;;5077286;28;20847;-76
2021/04/09 07:51:01;;;;;;;13.83;12.40;;;9.70;96.50;;;;;;5077500;28;20447;-76
2021/04/09 07:53:45;;;;;;;12.60;11.30;;;9.70;96.20;;;;;;5077485;28;20429;-76
2021/04/09 07:56:16;;;;;;;13.37;11.97;;;9.70;96.10;;;;;;5075791;28;20441;-76
2021/04/09 07:58:58;;;;;;;13.73;11.90;;;9.70;96.10;;;;;;5076833;28;20953;-76
2021/04/09 08:01:27;;;;;;;12.53;11.33;;;9.70;96.00;;;;;;5077128;28;20898;-76
2021/04/09 08:03:56;;;;;;;14.67;11.30;;;9.70;96.10;;;;;;5076939;28;20487;-76
2021/04/09 08:06:35;;;;;;;13.47;12.23;;;9.80;96.10;;;;;;5075449;28;20825;-76
2021/04/09 08:09:11;;;;;;;12.27;10.90;;;9.90;96.20;;;;;;5076713;28;20866;-76
2021/04/09 08:11:43;;;;;;;13.57;12.23;;;9.90;96.20;;;;;;5076894;28;20425;-76
2021/04/09 08:14:12;;;;;;;13.30;11.90;;;9.90;96.20;;;;;;5075444;28;20437;-76
2021/04/09 08:16:43;;;;;;;12.43;10.40;;;9.90;96.10;;;;;;5077250;28;20429;-76
2021/04/09 08:19:14;;;;;;;13.63;12.10;;;10.00;95.60;;;;;;5075311;28;20986;-77
2021/04/09 08:21:49;;;;;;;12.90;11.60;;;10.00;95.70;;;;;;5076609;28;20430;-76
2021/04/09 08:24:19;;;;;;;15.83;12.43;;;10.10;96.00;;;;;;5075334;28;20203;-76
2021/04/09 08:26:49;;;;;;;14.43;12.70;;;10.20;95.80;;;;;;5075228;28;20534;-76
2021/04/09 08:29:19;;;;;;;12.53;11.20;;;10.30;95.80;;;;;;5075316;28;20510;-76
2021/04/09 08:31:49;;;;;;;12.90;10.77;;;10.40;95.80;;;;;;5075214;28;20444;-76
2021/04/09 08:34:19;;;;;;;13.40;11.97;;;10.50;96.00;;;;;;5074475;28;20953;-76
2021/04/09 08:36:49;;;;;;;13.43;11.87;;;10.70;95.80;;;;;;5076603;28;20492;-76
2021/04/09 08:39:37;;;;;;;11.90;10.60;;;10.90;95.80;;;;;;5076295;28;20662;-76
2021/04/09 08:42:09;;;;;;;11.90;10.70;;;11.10;96.10;;;;;;5075113;28;20448;-76
2021/04/09 08:44:39;;;;;;;12.27;11.07;;;11.20;95.80;;;;;;5076448;28;20421;-76
2021/04/09 08:47:09;;;;;;;10.37;9.23;;;11.30;95.70;;;;;;5076050;28;20472;-76
2021/04/09 08:49:37;;;;;;;14.03;10.80;;;11.40;95.70;;;;;;5074769;28;20969;-76
2021/04/09 08:52:06;;;;;;;11.37;10.30;;;11.60;95.60;;;;;;5074904;28;20437;-76
2021/04/09 08:54:34;;;;;;;13.83;10.60;;;11.70;95.60;;;;;;5075011;28;20942;-76
2021/04/09 08:57:05;;;;;;;11.33;10.10;;;11.80;95.50;;;;;;5076148;28;20437;-76
2021/04/09 08:59:47;;;;;;;11.50;10.33;;;11.80;95.50;;;;;;5074903;28;20461;-77
2021/04/09 09:02:22;;;;;;;12.30;10.30;;;11.80;95.30;;;;;;5076689;28;20429;-77
2021/04/09 09:04:59;;;;;;;11.20;10.10;;;11.80;95.20;;;;;;5076422;28;20496;-77
2021/04/09 09:08:00;;;;;;;13.30;11.13;;;11.80;95.10;;;;;;5075777;28;21033;-77
2021/04/09 09:10:56;;;;;;;11.60;10.40;;;11.70;95.00;;;;;;5030917;28;20469;-77
2021/04/09 09:13:35;;;;;;;12.93;11.53;;;11.70;95.00;;;;;;5076052;28;20437;-77
2021/04/09 09:16:15;;;;;;;11.93;10.50;;;11.70;95.10;;;;;;5075078;28;20444;-77
2021/04/09 09:18:53;;;;;;;13.50;11.07;;;11.80;95.20;;;;;;5075579;28;20457;-77
2021/04/09 09:21:34;;;;;;;12.43;10.40;;;11.90;95.30;;;;;;5074252;28;20965;-77
2021/04/09 09:24:06;;;;;;;13.07;11.87;;;11.90;95.20;;;;;;5057595;28;20441;-77
2021/04/09 09:26:44;;;;;;;11.50;10.40;;;11.90;95.10;;;;;;5075283;28;20444;-77
2021/04/09 09:29:18;;;;;;;12.20;11.00;;;11.90;95.00;;;;;;5073947;28;20461;-77
2021/04/09 09:32:00;;;;;;;12.03;10.73;;;11.90;95.00;;;;;;5074272;28;20471;-77
2021/04/09 09:34:39;;;;;;;16.73;11.00;;;11.80;94.90;;;;;;5075641;28;20474;-76
2021/04/09 09:37:10;;;;;;;12.50;10.33;;;11.80;95.00;;;;;;5075875;28;20413;-76
2021/04/09 09:39:47;;;;;;;13.47;12.17;;;11.80;95.10;;;;;;5075421;28;20526;-77
2021/04/09 09:42:41;;;;;;;14.20;12.20;;;11.80;95.00;;;;;;5074336;28;20437;-76
2021/04/09 09:45:12;;;;;;;12.23;10.73;;;11.90;95.00;;;;;;5073679;28;20939;-76
2021/04/09 09:47:44;;;;;;;11.97;10.87;;;11.90;95.10;;;;;;5075095;28;20578;-77
2021/04/09 09:50:23;;;;;;;13.80;12.40;;;11.90;95.00;;;;;;5074420;28;20818;-77
2021/04/09 09:52:58;;;;;;;15.77;12.63;;;11.90;94.90;;;;;;5073563;28;20394;-77
2021/04/09 09:55:29;;;;;;;12.20;10.80;;;12.00;94.90;;;;;;5074998;28;20213;-77
2021/04/09 09:58:02;;;;;;;11.90;10.67;;;12.00;94.80;;;;;;5074690;28;20417;-77
2021/04/09 10:00:34;;;;;;;11.57;9.80;;;12.10;94.80;;;;;;5074841;28;20526;-77
2021/04/09 10:03:13;;;;;;;11.32;10.13;;;12.10;94.70;;;;;;5072907;28;20452;-77
2021/04/09 10:05:42;;;;;;;14.03;9.90;;;12.20;94.50;;;;;;5073525;28;20195;-77
2021/04/09 10:08:12;;;;;;;10.90;9.80;;;12.20;94.50;;;;;;5073465;28;20481;-77
2021/04/09 10:10:42;;;;;;;9.80;8.80;;;12.10;94.40;;;;;;5074269;28;20440;-77
2021/04/09 10:13:28;;;;;;;10.90;9.40;;;12.10;94.70;;;;;;5073032;28;20449;-77
2021/04/09 10:16:08;;;;;;;9.93;8.80;;;12.10;94.20;;;;;;5074607;28;20418;-77
2021/04/09 10:18:48;;;;;;;8.80;7.90;;;12.10;94.30;;;;;;5074077;28;20457;-77
2021/04/09 10:21:23;;;;;;;11.30;9.63;;;12.10;94.30;;;;;;5074392;28;20431;-77
2021/04/09 10:23:52;;;;;;;14.30;10.17;;;12.20;94.30;;;;;;5074583;28;20414;-77
2021/04/09 10:26:24;;;;;;;11.87;8.70;;;12.20;94.20;;;;;;5074511;28;20523;-77
2021/04/09 10:28:53;;;;;;;10.43;9.43;;;12.30;94.30;;;;;;5072795;28;20481;-76
2021/04/09 10:31:22;;;;;;;10.90;9.50;;;12.30;94.30;;;;;;5074293;28;20464;-76
2021/04/09 10:33:52;;;;;;;12.30;9.63;;;12.40;94.20;;;;;;5073199;28;20434;-77
2021/04/09 10:36:22;;;;;;;10.50;9.43;;;12.50;94.30;;;;;;5074086;28;20452;-77
2021/04/09 10:38:52;;;;;;;9.77;8.77;;;12.50;94.30;;;;;;5073784;28;20880;-77
2021/04/09 10:41:31;;;;;;;9.77;8.87;;;12.60;94.30;;;;;;5072678;28;20471;-77
2021/04/09 10:44:01;;;;;;;10.97;9.97;;;12.70;94.20;;;;;;5072874;28;21031;-77
2021/04/09 10:46:31;;;;;;;11.37;10.37;;;12.70;94.10;;;;;;5074043;28;20452;-77
2021/04/09 10:49:04;;;;;;;10.70;9.60;;;12.60;94.00;;;;;;5072497;28;20461;-77
2021/04/09 10:51:37;;;;;;;9.50;8.57;;;12.60;93.90;;;;;;5072917;28;20869;-77
2021/04/09 10:54:15;;;;;;;9.90;8.97;;;12.60;94.20;;;;;;5073924;28;20418;-77
2021/04/09 10:56:50;;;;;;;11.47;8.67;;;12.60;93.80;;;;;;5073849;28;20536;-77
2021/04/09 10:59:20;;;;;;;9.80;8.47;;;12.50;93.70;;;;;;5073549;28;20460;-77
2021/04/09 11:01:49;;;;;;;9.40;8.40;;;12.50;93.60;;;;;;5072316;28;20481;-77
2021/04/09 11:04:20;;;;;;;8.80;7.90;;;12.50;93.60;;;;;;5072492;28;20479;-77
2021/04/09 11:06:58;;;;;;;10.53;9.53;;;12.50;93.60;;;;;;5073437;28;20835;-77
2021/04/09 11:09:41;;;;;;;9.17;8.27;;;12.50;93.50;;;;;;5073419;28;20452;-77
2021/04/09 11:12:22;;;;;;;10.97;8.43;;;12.50;93.50;;;;;;5073501;28;20425;-77
2021/04/09 11:14:51;;;;;;;9.77;8.80;;;12.50;93.50;;;;;;5072084;28;20528;-77
2021/04/09 11:17:24;;;;;;;9.43;8.43;;;12.50;93.60;;;;;;5073629;28;20406;-77
2021/04/09 11:19:55;;;;;;;9.13;8.43;;;12.50;93.60;;;;;;5073496;28;20459;-77
2021/04/09 11:22:23;;;;;;;10.13;8.33;;;12.40;93.60;;;;;;5073627;28;20417;-77
2021/04/09 11:24:58;;;;;;;10.63;9.00;;;12.40;93.40;;;;;;5072288;28;20795;-77
2021/04/09 11:27:47;;;;;;;9.77;8.77;;;12.50;93.20;;;;;;5073558;28;20310;-77
2021/04/09 11:30:22;;;;;;;10.93;9.83;;;12.50;93.20;;;;;;5073400;28;20950;-77
2021/04/09 11:32:51;;;;;;;11.03;9.93;;;12.40;93.30;;;;;;5072136;28;21003;-77
2021/04/09 11:35:20;;;;;;;9.93;8.57;;;12.40;93.40;;;;;;5072043;28;20446;-77
2021/04/09 11:37:50;;;;;;;13.37;10.37;;;12.40;93.40;;;;;;5073411;28;20433;-77
2021/04/09 11:40:33;;;;;;;11.60;10.43;;;12.40;93.40;;;;;;5072048;28;20473;-77
2021/04/09 11:43:00;;;;;;;10.97;9.77;;;12.50;93.50;;;;;;5072717;28;20468;-76
2021/04/09 11:45:38;;;;;;;9.90;9.00;;;12.50;93.80;;;;;;5073128;28;20482;-77
2021/04/09 11:48:25;;;;;;;11.47;10.43;;;12.60;93.60;;;;;;5073309;28;20469;-77
2021/04/09 11:50:54;;;;;;;10.40;9.40;;;12.70;93.60;;;;;;5071990;28;20496;-77
2021/04/09 11:53:22;;;;;;;12.60;11.30;;;12.80;93.50;;;;;;5073219;28;20441;-77
2021/04/09 11:55:51;;;;;;;11.27;10.17;;;12.90;93.60;;;;;;5072024;28;20445;-77
2021/04/09 11:58:20;;;;;;;12.33;9.97;;;13.00;93.60;;;;;;5073099;28;20443;-77
2021/04/09 12:00:55;;;;;;;10.80;9.87;;;13.10;93.60;;;;;;5073011;28;20523;-77
2021/04/09 12:03:39;;;;;;;9.93;9.10;;;13.20;93.60;;;;;;5073467;28;20421;-76
2021/04/09 12:06:10;;;;;;;10.43;9.10;;;13.30;93.50;;;;;;5073104;28;20428;-77
2021/04/09 12:08:37;;;;;;;9.83;8.83;;;13.50;93.40;;;;;;5073932;28;20452;-77
2021/04/09 12:11:07;;;;;;;10.37;9.40;;;13.50;93.30;;;;;;5075426;28;20416;-77
2021/04/09 12:13:35;;;;;;;10.00;9.00;;;13.50;93.30;;;;;;5075343;28;20491;-77
2021/04/09 12:16:02;;;;;;;9.87;8.77;;;13.40;93.20;;;;;;5076721;28;20523;-77
2021/04/09 12:18:29;;;;;;;10.07;9.07;;;13.40;93.10;;;;;;5075147;28;20508;-77
2021/04/09 12:20:57;;;;;;;10.43;9.30;;;13.30;92.90;;;;;;5076857;28;20431;-77
2021/04/09 12:23:26;;;;;;;10.20;9.30;;;13.20;92.90;;;;;;5075332;28;20857;-77
2021/04/09 12:25:55;;;;;;;10.60;9.60;;;13.20;93.00;;;;;;5075403;28;20811;-77
2021/04/09 12:28:23;;;;;;;10.23;9.33;;;13.20;93.00;;;;;;5076073;28;20973;-77
2021/04/09 12:30:52;;;;;;;10.00;8.90;;;13.20;93.00;;;;;;5072377;28;20444;-77
2021/04/09 12:33:21;;;;;;;11.43;10.23;;;13.20;92.90;;;;;;5076342;28;20442;-77
2021/04/09 12:35:48;;;;;;;10.00;9.20;;;13.10;92.80;;;;;;5076425;28;20970;-77
2021/04/09 12:38:17;;;;;;;9.80;8.90;;;13.00;92.80;;;;;;5074955;28;20449;-77
2021/04/09 12:40:46;;;;;;;10.73;9.80;;;12.90;92.80;;;;;;5077208;28;20444;-77
2021/04/09 12:43:20;;;;;;;9.17;8.40;;;12.80;92.70;;;;;;5080924;28;20452;-77
2021/04/09 12:45:49;;;;;;;9.80;8.90;;;12.70;92.70;;;;;;5095580;28;20511;-77
2021/04/09 12:48:18;;;;;;;9.70;8.70;;;12.70;92.70;;;;;;5096867;28;20460;-77
2021/04/09 12:50:46;;;;;;;10.70;8.73;;;12.60;92.70;;;;;;5096843;28;20479;-77
2021/04/09 12:53:13;;;;;;;9.17;8.20;;;12.50;92.80;;;;;;5082009;28;20428;-77